createdAt,value
2018-07-21T00:00:45.421Z,24.92
2018-07-21T00:01:45.403Z,24.91
2018-07-21T00:02:45.505Z,24.85
2018-07-21T00:03:45.437Z,24.85
2018-07-21T00:04:45.421Z,24.82
2018-07-21T00:05:45.447Z,24.83
2018-07-21T00:06:45.439Z,24.76
2018-07-21T00:07:45.416Z,24.79
2018-07-21T00:08:45.413Z,24.8
2018-07-21T00:09:45.402Z,24.78
2018-07-21T00:10:45.552Z,24.81
2018-07-21T00:11:45.460Z,24.77
2018-07-21T00:12:45.384Z,24.76
2018-07-21T00:13:45.376Z,24.76
2018-07-21T00:14:45.393Z,24.62
2018-07-21T00:15:45.435Z,24.65
2018-07-21T00:16:45.402Z,24.67
2018-07-21T00:17:45.400Z,24.68
2018-07-21T00:18:45.397Z,24.64
2018-07-21T00:19:45.382Z,24.56
2018-07-21T00:20:45.404Z,24.55
2018-07-21T00:21:45.408Z,24.58
2018-07-21T00:22:45.448Z,24.58
2018-07-21T00:23:45.456Z,24.53
2018-07-21T00:24:45.417Z,24.5
2018-07-21T00:25:45.458Z,24.5
2018-07-21T00:26:45.401Z,24.45
2018-07-21T00:27:45.451Z,24.47
2018-07-21T00:28:45.373Z,24.42
2018-07-21T00:29:45.363Z,24.38
2018-07-21T00:30:45.500Z,24.41
2018-07-21T00:31:45.416Z,24.36
2018-07-21T00:32:45.406Z,24.37
2018-07-21T00:33:45.408Z,24.4
2018-07-21T00:34:45.417Z,24.29
2018-07-21T00:35:45.410Z,24.31
2018-07-21T00:36:45.363Z,24.23
2018-07-21T00:37:45.393Z,24.23
2018-07-21T00:38:45.461Z,24.28
2018-07-21T00:39:45.383Z,24.25
2018-07-21T00:40:45.427Z,24.27
2018-07-21T00:41:45.438Z,24.21
2018-07-21T00:42:45.388Z,24.15
2018-07-21T00:43:45.379Z,24.15
2018-07-21T00:44:45.393Z,24.18
2018-07-21T00:45:45.409Z,24.1
2018-07-21T00:46:45.379Z,24.06
2018-07-21T00:47:45.376Z,24
2018-07-21T00:48:45.391Z,24
2018-07-21T00:49:45.357Z,24.02
2018-07-21T00:50:45.431Z,24.07
2018-07-21T00:51:45.449Z,23.97
2018-07-21T00:52:45.550Z,23.98
2018-07-21T00:53:45.426Z,23.98
2018-07-21T00:54:45.405Z,23.96
2018-07-21T00:55:45.442Z,23.96
2018-07-21T00:56:45.395Z,23.88
2018-07-21T00:57:45.447Z,23.84
2018-07-21T00:58:45.414Z,23.84
2018-07-21T00:59:45.414Z,23.88
2018-07-21T01:00:45.381Z,23.92
2018-07-21T01:01:45.416Z,23.91
2018-07-21T01:02:45.512Z,23.86
2018-07-21T01:03:45.401Z,23.86
2018-07-21T01:04:45.393Z,23.86
2018-07-21T01:05:45.405Z,23.86
2018-07-21T01:06:45.481Z,23.86
2018-07-21T01:07:45.438Z,23.85
2018-07-21T01:08:45.598Z,23.86
2018-07-21T01:09:45.468Z,23.77
2018-07-21T01:10:45.477Z,23.76
2018-07-21T01:11:45.492Z,23.77
2018-07-21T01:12:45.417Z,23.7
2018-07-21T01:13:45.422Z,23.72
2018-07-21T01:14:45.477Z,23.64
2018-07-21T01:15:45.525Z,23.58
2018-07-21T01:16:45.561Z,23.52
2018-07-21T01:17:45.492Z,23.51
2018-07-21T01:18:45.427Z,23.55
2018-07-21T01:19:45.514Z,23.48
2018-07-21T01:20:45.424Z,23.47
2018-07-21T01:21:45.430Z,23.48
2018-07-21T01:22:45.544Z,23.43
2018-07-21T01:23:45.467Z,23.4
2018-07-21T01:24:45.607Z,23.4
2018-07-21T01:25:45.523Z,23.37
2018-07-21T01:26:45.428Z,23.4
2018-07-21T01:27:45.440Z,23.37
2018-07-21T01:28:45.405Z,23.44
2018-07-21T01:29:45.447Z,23.4
2018-07-21T01:30:45.415Z,23.4
2018-07-21T01:31:45.604Z,23.42
2018-07-21T01:32:45.463Z,23.42
2018-07-21T01:33:45.439Z,23.33
2018-07-21T01:34:45.527Z,23.33
2018-07-21T01:35:45.457Z,23.36
2018-07-21T01:36:45.467Z,23.36
2018-07-21T01:37:45.483Z,23.41
2018-07-21T01:38:45.442Z,23.42
2018-07-21T01:39:45.501Z,23.46
2018-07-21T01:40:45.468Z,23.45
2018-07-21T01:41:45.492Z,23.46
2018-07-21T01:42:45.407Z,23.49
2018-07-21T01:43:45.464Z,23.5
2018-07-21T01:44:45.446Z,23.47
2018-07-21T01:45:45.443Z,23.46
2018-07-21T01:46:45.463Z,23.48
2018-07-21T01:47:45.436Z,23.48
2018-07-21T01:48:45.456Z,23.49
2018-07-21T01:49:45.427Z,23.46
2018-07-21T01:50:45.403Z,23.43
2018-07-21T01:51:45.470Z,23.47
2018-07-21T01:52:45.405Z,23.38
2018-07-21T01:53:45.406Z,23.42
2018-07-21T01:54:45.393Z,23.43
2018-07-21T01:55:45.384Z,23.36
2018-07-21T01:56:45.433Z,23.39
2018-07-21T01:57:45.396Z,23.44
2018-07-21T01:58:45.426Z,23.45
2018-07-21T01:59:45.339Z,23.45
2018-07-21T02:00:45.404Z,23.49
2018-07-21T02:01:45.421Z,23.45
2018-07-21T02:02:45.396Z,23.45
2018-07-21T02:03:45.358Z,23.49
2018-07-21T02:04:45.385Z,23.5
2018-07-21T02:05:45.393Z,23.5
2018-07-21T02:06:45.377Z,23.5
2018-07-21T02:07:45.359Z,23.49
2018-07-21T02:08:45.459Z,23.32
2018-07-21T02:09:45.350Z,23.29
2018-07-21T02:10:45.383Z,23.31
2018-07-21T02:11:45.394Z,23.28
2018-07-21T02:12:46.188Z,23.26
2018-07-21T02:13:45.369Z,23.29
2018-07-21T02:14:45.356Z,23.29
2018-07-21T02:15:45.455Z,23.22
2018-07-21T02:16:45.353Z,23.25
2018-07-21T02:17:45.449Z,23.3
2018-07-21T02:18:45.367Z,23.3
2018-07-21T02:19:45.572Z,23.31
2018-07-21T02:20:45.421Z,23.33
2018-07-21T02:21:45.425Z,23.32
2018-07-21T02:22:45.444Z,23.3
2018-07-21T02:23:46.061Z,23.32
2018-07-21T02:24:45.539Z,23.26
2018-07-21T02:25:45.386Z,23.25
2018-07-21T02:26:45.555Z,23.24
2018-07-21T02:27:45.350Z,23.26
2018-07-21T02:28:45.480Z,23.31
2018-07-21T02:29:45.399Z,23.28
2018-07-21T02:30:45.363Z,23.29
2018-07-21T02:31:45.494Z,23.3
2018-07-21T02:32:45.433Z,23.28
2018-07-21T02:33:45.462Z,23.31
2018-07-21T02:34:45.961Z,23.28
2018-07-21T02:35:45.481Z,23.31
2018-07-21T02:36:45.409Z,23.28
2018-07-21T02:37:45.362Z,23.18
2018-07-21T02:38:45.388Z,23.07
2018-07-21T02:39:45.565Z,23.12
2018-07-21T02:40:45.369Z,23.11
2018-07-21T02:41:45.376Z,23.15
2018-07-21T02:42:45.445Z,23.17
2018-07-21T02:43:45.456Z,23.16
2018-07-21T02:44:45.558Z,23.19
2018-07-21T02:45:46.258Z,23.18
2018-07-21T02:46:45.417Z,23.14
2018-07-21T02:47:45.419Z,23.15
2018-07-21T02:48:45.385Z,23.14
2018-07-21T02:49:45.830Z,23.13
2018-07-21T02:50:45.497Z,23.08
2018-07-21T02:51:45.415Z,23
2018-07-21T02:52:45.506Z,23.01
2018-07-21T02:53:45.416Z,22.95
2018-07-21T02:54:45.729Z,22.96
2018-07-21T02:55:45.476Z,22.95
2018-07-21T02:56:45.439Z,22.97
2018-07-21T02:57:45.427Z,22.97
2018-07-21T02:58:45.427Z,23
2018-07-21T02:59:45.364Z,22.96
2018-07-21T03:00:45.438Z,22.97
2018-07-21T03:01:45.944Z,22.98
2018-07-21T03:02:45.663Z,22.98
2018-07-21T03:03:45.401Z,22.98
2018-07-21T03:04:45.384Z,23.01
2018-07-21T03:05:45.566Z,23.01
2018-07-21T03:06:45.375Z,22.99
2018-07-21T03:07:45.393Z,22.96
2018-07-21T03:08:45.385Z,22.97
2018-07-21T03:09:45.370Z,22.98
2018-07-21T03:10:45.536Z,23
2018-07-21T03:11:45.383Z,22.99
2018-07-21T03:12:45.392Z,22.99
2018-07-21T03:13:45.422Z,22.93
2018-07-21T03:14:45.407Z,22.94
2018-07-21T03:15:45.372Z,22.93
2018-07-21T03:16:45.377Z,22.93
2018-07-21T03:17:45.377Z,22.92
2018-07-21T03:18:45.386Z,22.94
2018-07-21T03:19:45.385Z,22.94
2018-07-21T03:20:45.420Z,22.95
2018-07-21T03:21:45.452Z,22.97
2018-07-21T03:22:45.376Z,22.94
2018-07-21T03:23:45.379Z,22.92
2018-07-21T03:24:45.400Z,22.85
2018-07-21T03:25:45.396Z,22.83
2018-07-21T03:26:45.383Z,22.74
2018-07-21T03:27:45.379Z,22.76
2018-07-21T03:28:45.368Z,22.77
2018-07-21T03:29:45.359Z,22.75
2018-07-21T03:30:45.862Z,22.75
2018-07-21T03:31:45.485Z,22.73
2018-07-21T03:32:45.359Z,22.73
2018-07-21T03:33:45.392Z,22.67
2018-07-21T03:34:45.440Z,22.66
2018-07-21T03:35:45.377Z,22.67
2018-07-21T03:36:45.408Z,22.7
2018-07-21T03:37:46.764Z,22.72
2018-07-21T03:38:45.384Z,22.74
2018-07-21T03:39:45.356Z,22.72
2018-07-21T03:40:45.408Z,22.73
2018-07-21T03:41:45.449Z,22.7
2018-07-21T03:42:45.333Z,22.73
2018-07-21T03:43:45.508Z,22.7
2018-07-21T03:44:45.432Z,22.7
2018-07-21T03:45:45.349Z,22.72
2018-07-21T03:46:45.418Z,22.71
2018-07-21T03:47:45.542Z,22.74
2018-07-21T03:48:45.973Z,22.74
2018-07-21T03:49:45.382Z,22.76
2018-07-21T03:50:45.376Z,22.76
2018-07-21T03:51:45.390Z,22.76
2018-07-21T03:52:45.358Z,22.73
2018-07-21T03:53:45.350Z,22.74
2018-07-21T03:54:45.537Z,22.74
2018-07-21T03:55:45.420Z,22.7
2018-07-21T03:56:45.457Z,22.68
2018-07-21T03:57:45.450Z,22.71
2018-07-21T03:58:45.435Z,22.68
2018-07-21T03:59:45.372Z,22.7
2018-07-21T04:00:45.374Z,22.7
2018-07-21T04:01:45.376Z,22.73
2018-07-21T04:02:45.396Z,22.75
2018-07-21T04:03:45.343Z,22.74
2018-07-21T04:04:45.419Z,22.75
2018-07-21T04:05:45.578Z,22.75
2018-07-21T04:06:45.339Z,22.76
2018-07-21T04:07:45.389Z,22.79
2018-07-21T04:08:45.389Z,22.72
2018-07-21T04:09:45.417Z,22.7
2018-07-21T04:10:45.374Z,22.66
2018-07-21T04:11:45.534Z,22.53
2018-07-21T04:12:45.432Z,22.53
2018-07-21T04:13:45.416Z,22.49
2018-07-21T04:14:45.386Z,22.49
2018-07-21T04:15:45.551Z,22.51
2018-07-21T04:16:45.481Z,22.53
2018-07-21T04:17:45.465Z,22.51
2018-07-21T04:18:45.537Z,22.47
2018-07-21T04:19:45.448Z,22.43
2018-07-21T04:20:45.385Z,22.44
2018-07-21T04:21:45.408Z,22.44
2018-07-21T04:22:45.347Z,22.44
2018-07-21T04:23:45.336Z,22.4
2018-07-21T04:24:45.393Z,22.41
2018-07-21T04:25:45.617Z,22.43
2018-07-21T04:26:45.348Z,22.43
2018-07-21T04:27:45.342Z,22.4
2018-07-21T04:28:45.329Z,22.36
2018-07-21T04:29:45.357Z,22.4
2018-07-21T04:30:45.410Z,22.37
2018-07-21T04:31:45.423Z,22.39
2018-07-21T04:32:45.393Z,22.42
2018-07-21T04:33:45.345Z,22.32
2018-07-21T04:34:45.322Z,22.35
2018-07-21T04:35:45.325Z,22.33
2018-07-21T04:36:45.416Z,22.28
2018-07-21T04:37:45.378Z,22.3
2018-07-21T04:38:45.354Z,22.3
2018-07-21T04:39:45.442Z,22.29
2018-07-21T04:40:45.362Z,22.25
2018-07-21T04:41:45.369Z,22.24
2018-07-21T04:42:45.362Z,22.22
2018-07-21T04:43:45.338Z,22.22
2018-07-21T04:44:45.370Z,22.19
2018-07-21T04:45:45.357Z,22.17
2018-07-21T04:46:45.912Z,22.17
2018-07-21T04:47:45.338Z,22.19
2018-07-21T04:48:45.300Z,22.22
2018-07-21T04:49:45.384Z,22.19
2018-07-21T04:50:45.451Z,22.19
2018-07-21T04:51:45.474Z,22.19
2018-07-21T04:52:45.441Z,22.14
2018-07-21T04:53:45.386Z,22.11
2018-07-21T04:54:45.489Z,22.12
2018-07-21T04:55:45.413Z,22.11
2018-07-21T04:56:45.406Z,22.1
2018-07-21T04:57:45.451Z,22.13
2018-07-21T04:58:45.333Z,22.14
2018-07-21T04:59:45.353Z,22.19
2018-07-21T05:00:46.621Z,22.13
2018-07-21T05:01:45.382Z,22.12
2018-07-21T05:02:45.452Z,22.15
2018-07-21T05:03:45.341Z,22.06
2018-07-21T05:04:45.330Z,22.08
2018-07-21T05:05:45.419Z,21.98
2018-07-21T05:06:45.392Z,21.97
2018-07-21T05:07:45.377Z,21.97
2018-07-21T05:08:45.385Z,22.01
2018-07-21T05:09:45.322Z,22.05
2018-07-21T05:10:45.325Z,22.07
2018-07-21T05:11:45.432Z,22.12
2018-07-21T05:12:45.362Z,22.12
2018-07-21T05:13:45.345Z,22.07
2018-07-21T05:14:45.339Z,22.08
2018-07-21T05:15:45.426Z,22.04
2018-07-21T05:16:45.314Z,21.96
2018-07-21T05:17:45.311Z,21.99
2018-07-21T05:18:45.351Z,21.97
2018-07-21T05:19:45.318Z,21.89
2018-07-21T05:20:45.423Z,21.91
2018-07-21T05:21:45.434Z,21.86
2018-07-21T05:22:45.417Z,21.82
2018-07-21T05:23:45.430Z,21.87
2018-07-21T05:24:45.523Z,21.9
2018-07-21T05:25:45.338Z,21.84
2018-07-21T05:26:45.509Z,21.85
2018-07-21T05:27:45.367Z,21.85
2018-07-21T05:28:45.367Z,21.86
2018-07-21T05:29:45.380Z,21.85
2018-07-21T05:30:45.345Z,21.87
2018-07-21T05:31:45.366Z,21.82
2018-07-21T05:32:45.428Z,21.84
2018-07-21T05:33:45.365Z,21.85
2018-07-21T05:34:45.510Z,21.87
2018-07-21T05:35:45.420Z,21.88
2018-07-21T05:36:45.482Z,21.93
2018-07-21T05:37:45.295Z,21.93
2018-07-21T05:38:45.324Z,21.93
2018-07-21T05:39:45.459Z,21.94
2018-07-21T05:40:45.332Z,21.9
2018-07-21T05:41:45.640Z,21.93
2018-07-21T05:42:45.537Z,21.98
2018-07-21T05:43:45.313Z,21.95
2018-07-21T05:44:45.464Z,21.92
2018-07-21T05:45:45.336Z,21.91
2018-07-21T05:46:45.312Z,21.92
2018-07-21T05:47:45.356Z,21.98
2018-07-21T05:48:45.361Z,22
2018-07-21T05:49:45.318Z,21.99
2018-07-21T05:50:45.322Z,22
2018-07-21T05:51:45.347Z,21.96
2018-07-21T05:52:45.340Z,21.96
2018-07-21T05:53:45.350Z,21.97
2018-07-21T05:54:45.368Z,21.93
2018-07-21T05:55:45.330Z,21.92
2018-07-21T05:56:45.443Z,21.93
2018-07-21T05:57:45.373Z,21.98
2018-07-21T05:58:45.361Z,22
2018-07-21T05:59:45.287Z,22.04
2018-07-21T06:00:45.332Z,22.01
2018-07-21T06:01:45.347Z,22.03
2018-07-21T06:02:46.168Z,22.03
2018-07-21T06:03:45.389Z,22
2018-07-21T06:04:45.504Z,22.01
2018-07-21T06:05:45.507Z,22
2018-07-21T06:06:45.507Z,21.98
2018-07-21T06:07:45.419Z,21.97
2018-07-21T06:08:45.901Z,21.93
2018-07-21T06:09:45.341Z,21.91
2018-07-21T06:10:45.334Z,21.92
2018-07-21T06:11:45.521Z,21.92
2018-07-21T06:12:45.410Z,21.95
2018-07-21T06:13:45.300Z,21.95
2018-07-21T06:14:45.307Z,21.91
2018-07-21T06:15:45.373Z,21.92
2018-07-21T06:16:45.343Z,21.94
2018-07-21T06:17:45.357Z,21.93
2018-07-21T06:18:46.238Z,21.93
2018-07-21T06:19:45.289Z,21.92
2018-07-21T06:20:45.394Z,21.87
2018-07-21T06:21:45.309Z,21.86
2018-07-21T06:22:45.356Z,21.87
2018-07-21T06:23:45.688Z,21.91
2018-07-21T06:24:45.315Z,21.91
2018-07-21T06:25:45.405Z,21.93
2018-07-21T06:26:45.358Z,21.94
2018-07-21T06:27:45.568Z,21.98
2018-07-21T06:28:45.366Z,21.99
2018-07-21T06:29:45.382Z,22.04
2018-07-21T06:30:45.364Z,22.03
2018-07-21T06:31:45.296Z,21.95
2018-07-21T06:32:45.729Z,21.95
2018-07-21T06:33:45.366Z,21.94
2018-07-21T06:34:45.444Z,21.96
2018-07-21T06:35:45.287Z,21.9
2018-07-21T06:36:45.335Z,21.83
2018-07-21T06:37:45.406Z,21.86
2018-07-21T06:38:45.449Z,21.87
2018-07-21T06:39:45.328Z,21.92
2018-07-21T06:40:45.375Z,21.89
2018-07-21T06:41:45.451Z,21.92
2018-07-21T06:42:45.309Z,21.91
2018-07-21T06:43:45.736Z,21.93
2018-07-21T06:44:45.365Z,21.93
2018-07-21T06:45:45.282Z,21.82
2018-07-21T06:46:45.331Z,21.83
2018-07-21T06:47:45.622Z,21.78
2018-07-21T06:48:45.282Z,21.78
2018-07-21T06:49:45.328Z,21.72
2018-07-21T06:50:45.327Z,21.75
2018-07-21T06:51:45.468Z,21.76
2018-07-21T06:52:45.268Z,21.75
2018-07-21T06:53:45.273Z,21.74
2018-07-21T06:54:45.298Z,21.76
2018-07-21T06:55:45.277Z,21.75
2018-07-21T06:56:45.295Z,21.73
2018-07-21T06:57:45.293Z,21.67
2018-07-21T06:58:45.320Z,21.7
2018-07-21T06:59:45.300Z,21.66
2018-07-21T07:00:45.274Z,21.67
2018-07-21T07:01:45.279Z,21.73
2018-07-21T07:02:45.338Z,21.73
2018-07-21T07:03:45.309Z,21.7
2018-07-21T07:04:46.244Z,21.69
2018-07-21T07:05:45.404Z,21.72
2018-07-21T07:06:45.339Z,21.7
2018-07-21T07:07:45.288Z,21.73
2018-07-21T07:08:45.251Z,21.75
2018-07-21T07:09:45.298Z,21.79
2018-07-21T07:10:45.289Z,21.73
2018-07-21T07:11:45.255Z,21.71
2018-07-21T07:12:45.280Z,21.73
2018-07-21T07:13:45.271Z,21.76
2018-07-21T07:14:45.259Z,21.74
2018-07-21T07:15:45.270Z,21.74
2018-07-21T07:16:45.287Z,21.75
2018-07-21T07:17:45.291Z,21.73
2018-07-21T07:18:45.348Z,21.74
2018-07-21T07:19:45.244Z,21.73
2018-07-21T07:20:45.245Z,21.62
2018-07-21T07:21:45.248Z,21.64
2018-07-21T07:22:45.269Z,21.68
2018-07-21T07:23:45.259Z,21.61
2018-07-21T07:24:45.321Z,21.58
2018-07-21T07:25:45.322Z,21.58
2018-07-21T07:26:45.645Z,21.59
2018-07-21T07:27:45.303Z,21.61
2018-07-21T07:28:45.386Z,21.64
2018-07-21T07:29:45.378Z,21.59
2018-07-21T07:30:45.344Z,21.59
2018-07-21T07:31:45.290Z,21.58
2018-07-21T07:32:45.379Z,21.55
2018-07-21T07:33:45.305Z,21.55
2018-07-21T07:34:45.305Z,21.48
2018-07-21T07:35:45.504Z,21.44
2018-07-21T07:36:45.361Z,21.46
2018-07-21T07:37:45.316Z,21.48
2018-07-21T07:38:45.449Z,21.46
2018-07-21T07:39:45.490Z,21.39
2018-07-21T07:40:45.348Z,21.33
2018-07-21T07:41:45.314Z,21.35
2018-07-21T07:42:45.284Z,21.41
2018-07-21T07:43:45.297Z,21.43
2018-07-21T07:44:45.391Z,21.5
2018-07-21T07:45:45.311Z,21.5
2018-07-21T07:46:45.517Z,21.5
2018-07-21T07:47:45.405Z,21.53
2018-07-21T07:48:45.272Z,21.54
2018-07-21T07:49:45.265Z,21.56
2018-07-21T07:50:45.408Z,21.56
2018-07-21T07:51:45.436Z,21.54
2018-07-21T07:52:45.367Z,21.49
2018-07-21T07:53:46.069Z,21.49
2018-07-21T07:54:45.309Z,21.51
2018-07-21T07:55:45.379Z,21.49
2018-07-21T07:56:45.303Z,21.47
2018-07-21T07:57:45.363Z,21.46
2018-07-21T07:58:45.290Z,21.41
2018-07-21T07:59:45.358Z,21.42
2018-07-21T08:00:45.285Z,21.47
2018-07-21T08:01:45.277Z,21.43
2018-07-21T08:02:45.250Z,21.42
2018-07-21T08:03:45.447Z,21.37
2018-07-21T08:04:45.292Z,21.39
2018-07-21T08:05:45.319Z,21.3
2018-07-21T08:06:45.281Z,21.3
2018-07-21T08:07:45.271Z,21.23
2018-07-21T08:08:45.346Z,21.21
2018-07-21T08:09:45.317Z,21.22
2018-07-21T08:10:45.270Z,21.23
2018-07-21T08:11:45.281Z,21.2
2018-07-21T08:12:45.377Z,21.19
2018-07-21T08:13:45.298Z,21.24
2018-07-21T08:14:45.271Z,21.26
2018-07-21T08:15:45.249Z,21.32
2018-07-21T08:16:45.263Z,21.38
2018-07-21T08:17:45.299Z,21.38
2018-07-21T08:18:45.314Z,21.44
2018-07-21T08:19:45.343Z,21.46
2018-07-21T08:20:45.322Z,21.46
2018-07-21T08:21:45.253Z,21.5
2018-07-21T08:22:45.304Z,21.5
2018-07-21T08:23:45.331Z,21.48
2018-07-21T08:24:45.239Z,21.5
2018-07-21T08:25:45.449Z,21.5
2018-07-21T08:26:45.327Z,21.49
2018-07-21T08:27:45.298Z,21.44
2018-07-21T08:28:45.299Z,21.45
2018-07-21T08:29:45.300Z,21.49
2018-07-21T08:30:45.276Z,21.45
2018-07-21T08:31:45.248Z,21.46
2018-07-21T08:32:45.311Z,21.43
2018-07-21T08:33:45.294Z,21.47
2018-07-21T08:34:46.010Z,21.49
2018-07-21T08:35:45.221Z,21.52
2018-07-21T08:36:45.371Z,21.51
2018-07-21T08:37:45.281Z,21.49
2018-07-21T08:38:45.307Z,21.41
2018-07-21T08:39:45.392Z,21.35
2018-07-21T08:40:45.284Z,21.3
2018-07-21T08:41:45.276Z,21.28
2018-07-21T08:42:45.357Z,21.27
2018-07-21T08:43:45.270Z,21.27
2018-07-21T08:44:45.484Z,21.25
2018-07-21T08:45:45.276Z,21.23
2018-07-21T08:46:45.520Z,21.3
2018-07-21T08:47:45.274Z,21.36
2018-07-21T08:48:45.387Z,21.29
2018-07-21T08:49:45.716Z,21.32
2018-07-21T08:50:45.255Z,21.36
2018-07-21T08:51:45.372Z,21.36
2018-07-21T08:52:45.457Z,21.35
2018-07-21T08:53:45.322Z,21.27
2018-07-21T08:54:45.275Z,21.22
2018-07-21T08:55:45.902Z,21.26
2018-07-21T08:56:45.391Z,21.27
2018-07-21T08:57:45.340Z,21.33
2018-07-21T08:58:45.377Z,21.31
2018-07-21T08:59:45.260Z,21.27
2018-07-21T09:00:45.981Z,21.24
2018-07-21T09:01:45.266Z,21.26
2018-07-21T09:02:45.262Z,21.29
2018-07-21T09:03:45.338Z,21.24
2018-07-21T09:04:45.399Z,21.31
2018-07-21T09:05:46.103Z,21.36
2018-07-21T09:06:45.332Z,21.39
2018-07-21T09:07:45.262Z,21.39
2018-07-21T09:08:45.296Z,21.36
2018-07-21T09:09:45.356Z,21.4
2018-07-21T09:10:45.588Z,21.39
2018-07-21T09:11:45.666Z,21.4
2018-07-21T09:12:45.531Z,21.34
2018-07-21T09:13:45.324Z,21.35
2018-07-21T09:14:45.349Z,21.35
2018-07-21T09:15:45.262Z,21.36
2018-07-21T09:16:45.324Z,21.36
2018-07-21T09:17:45.445Z,21.36
2018-07-21T09:18:50.312Z,21.37
2018-07-21T09:19:45.383Z,21.36
2018-07-21T09:20:45.240Z,21.32
2018-07-21T09:21:45.263Z,21.3
2018-07-21T09:22:45.248Z,21.31
2018-07-21T09:23:45.266Z,21.3
2018-07-21T09:24:45.254Z,21.34
2018-07-21T09:25:45.558Z,21.33
2018-07-21T09:26:45.468Z,21.29
2018-07-21T09:27:45.188Z,21.34
2018-07-21T09:28:45.216Z,21.36
2018-07-21T09:29:45.220Z,21.37
2018-07-21T09:30:45.247Z,21.34
2018-07-21T09:31:45.235Z,21.32
2018-07-21T09:32:45.387Z,21.39
2018-07-21T09:33:45.356Z,21.39
2018-07-21T09:34:45.163Z,21.43
2018-07-21T09:35:45.213Z,21.44
2018-07-21T09:36:45.259Z,21.45
2018-07-21T09:37:45.205Z,21.46
2018-07-21T09:38:45.493Z,21.42
2018-07-21T09:39:45.220Z,21.43
2018-07-21T09:40:45.261Z,21.36
2018-07-21T09:41:45.713Z,21.33
2018-07-21T09:42:45.237Z,21.32
2018-07-21T09:43:46.084Z,21.36
2018-07-21T09:44:45.201Z,21.38
2018-07-21T09:45:45.212Z,21.39
2018-07-21T09:46:45.243Z,21.4
2018-07-21T09:47:45.199Z,21.43
2018-07-21T09:48:45.182Z,21.44
2018-07-21T09:49:45.213Z,21.39
2018-07-21T09:50:45.243Z,21.37
2018-07-21T09:51:45.184Z,21.3
2018-07-21T09:52:45.215Z,21.31
2018-07-21T09:53:48.363Z,21.29
2018-07-21T09:54:45.218Z,21.3
2018-07-21T09:55:46.391Z,21.29
2018-07-21T09:56:45.241Z,21.26
2018-07-21T09:57:45.261Z,21.28
2018-07-21T09:58:45.277Z,21.24
2018-07-21T09:59:45.216Z,21.16
2018-07-21T10:00:45.198Z,21.13
2018-07-21T10:01:45.226Z,21.15
2018-07-21T10:02:45.213Z,21.15
2018-07-21T10:03:45.227Z,21.18
2018-07-21T10:04:45.269Z,21.19
2018-07-21T10:05:45.210Z,21.2
2018-07-21T10:06:45.197Z,21.2
2018-07-21T10:07:45.245Z,21.21
2018-07-21T10:08:45.259Z,21.21
2018-07-21T10:09:45.269Z,21.21
2018-07-21T10:10:45.208Z,21.22
2018-07-21T10:11:45.319Z,21.19
2018-07-21T10:12:45.681Z,21.2
2018-07-21T10:13:45.293Z,21.18
2018-07-21T10:14:45.283Z,21.15
2018-07-21T10:15:45.225Z,21.12
2018-07-21T10:16:45.321Z,21.14
2018-07-21T10:17:45.319Z,21.09
2018-07-21T10:18:45.326Z,21.07
2018-07-21T10:19:45.270Z,21.06
2018-07-21T10:20:45.279Z,21.07
2018-07-21T10:21:45.724Z,20.98
2018-07-21T10:22:45.278Z,20.9
2018-07-21T10:23:45.278Z,20.77
2018-07-21T10:24:45.424Z,20.79
2018-07-21T10:25:45.298Z,20.82
2018-07-21T10:26:45.292Z,20.84
2018-07-21T10:27:45.256Z,20.86
2018-07-21T10:28:45.418Z,20.86
2018-07-21T10:29:45.599Z,20.8
2018-07-21T10:30:45.530Z,20.81
2018-07-21T10:31:45.291Z,20.73
2018-07-21T10:32:45.534Z,20.66
2018-07-21T10:33:45.413Z,20.64
2018-07-21T10:34:45.324Z,20.69
2018-07-21T10:35:45.255Z,20.68
2018-07-21T10:36:45.360Z,20.72
2018-07-21T10:37:45.224Z,20.78
2018-07-21T10:38:45.259Z,20.82
2018-07-21T10:39:45.255Z,20.84
2018-07-21T10:40:35.348Z,20.87
2018-07-21T10:41:35.360Z,20.89
2018-07-21T10:42:35.477Z,20.89
2018-07-21T10:43:35.430Z,20.94
2018-07-21T10:44:36.068Z,20.95
2018-07-21T10:45:35.330Z,20.96
2018-07-21T10:46:35.300Z,20.97
2018-07-21T10:47:36.219Z,20.99
2018-07-21T10:48:35.621Z,21
2018-07-21T10:49:35.518Z,20.98
2018-07-21T10:50:35.312Z,21.01
2018-07-21T10:51:35.933Z,21
2018-07-21T10:52:35.438Z,21
2018-07-21T10:53:35.962Z,20.99
2018-07-21T10:54:35.303Z,21
2018-07-21T10:55:35.346Z,21.01
2018-07-21T10:56:35.308Z,20.95
2018-07-21T10:57:35.413Z,21.01
2018-07-21T10:58:35.612Z,21.02
2018-07-21T10:59:35.466Z,21.04
2018-07-21T11:00:35.268Z,21.07
2018-07-21T11:01:35.509Z,21.01
2018-07-21T11:02:35.345Z,21.05
2018-07-21T11:03:35.395Z,21.06
2018-07-21T11:04:35.328Z,21.11
2018-07-21T11:05:35.730Z,21.09
2018-07-21T11:06:35.451Z,21.05
2018-07-21T11:07:36.180Z,21.05
2018-07-21T11:08:35.274Z,21.07
2018-07-21T11:09:35.322Z,21.07
2018-07-21T11:10:35.373Z,21.08
2018-07-21T11:11:36.125Z,21.13
2018-07-21T11:12:35.316Z,21.13
2018-07-21T11:13:35.311Z,21.15
2018-07-21T11:14:35.324Z,21.2
2018-07-21T11:15:36.002Z,21.21
2018-07-21T11:16:35.357Z,21.24
2018-07-21T11:17:35.281Z,21.25
2018-07-21T11:18:35.287Z,21.26
2018-07-21T11:19:35.361Z,21.27
2018-07-21T11:20:35.391Z,21.3
2018-07-21T11:21:35.649Z,21.31
2018-07-21T11:22:35.290Z,21.31
2018-07-21T11:23:35.368Z,21.31
2018-07-21T11:24:35.338Z,21.32
2018-07-21T11:25:35.459Z,21.32
2018-07-21T11:26:35.331Z,21.33
2018-07-21T11:27:35.356Z,21.34
2018-07-21T11:28:35.325Z,21.34
2018-07-21T11:29:35.311Z,21.33
2018-07-21T11:30:35.373Z,21.34
2018-07-21T11:31:35.461Z,21.35
2018-07-21T11:32:35.478Z,21.35
2018-07-21T11:33:36.018Z,21.35
2018-07-21T11:34:35.428Z,21.37
2018-07-21T11:35:37.175Z,21.38
2018-07-21T11:36:36.186Z,21.39
2018-07-21T11:37:35.296Z,21.39
2018-07-21T11:38:35.351Z,21.4
2018-07-21T11:39:35.272Z,21.41
2018-07-21T11:40:35.894Z,21.43
2018-07-21T11:41:35.355Z,21.37
2018-07-21T11:42:35.821Z,21.37
2018-07-21T11:43:35.351Z,21.39
2018-07-21T11:44:36.077Z,21.39
2018-07-21T11:45:35.323Z,21.4
2018-07-21T11:46:35.295Z,21.41
2018-07-21T11:47:35.318Z,21.44
2018-07-21T11:48:35.256Z,21.45
2018-07-21T11:49:35.312Z,21.46
2018-07-21T11:50:35.351Z,21.5
2018-07-21T11:51:35.279Z,21.52
2018-07-21T11:52:35.328Z,21.54
2018-07-21T11:53:35.432Z,21.57
2018-07-21T11:54:35.507Z,21.55
2018-07-21T11:55:35.343Z,21.51
2018-07-21T11:56:35.294Z,21.4
2018-07-21T11:57:35.312Z,21.33
2018-07-21T11:58:35.288Z,21.37
2018-07-21T11:59:35.355Z,21.39
2018-07-21T12:00:35.430Z,21.44
2018-07-21T12:01:35.359Z,21.48
2018-07-21T12:02:35.299Z,21.39
2018-07-21T12:03:35.373Z,21.39
2018-07-21T12:04:35.368Z,21.46
2018-07-21T12:05:35.636Z,21.49
2018-07-21T12:06:35.380Z,21.53
2018-07-21T12:07:35.285Z,21.53
2018-07-21T12:08:35.309Z,21.58
2018-07-21T12:09:35.511Z,21.63
2018-07-21T12:10:35.293Z,21.68
2018-07-21T12:11:35.266Z,21.7
2018-07-21T12:12:35.254Z,21.74
2018-07-21T12:13:37.206Z,21.75
2018-07-21T12:14:35.380Z,21.76
2018-07-21T12:15:35.268Z,21.79
2018-07-21T12:16:35.412Z,21.78
2018-07-21T12:17:35.247Z,21.82
2018-07-21T12:18:35.267Z,21.83
2018-07-21T12:19:35.363Z,21.87
2018-07-21T12:20:35.267Z,21.87
2018-07-21T12:21:35.268Z,21.88
2018-07-21T12:22:35.701Z,21.89
2018-07-21T12:23:35.289Z,21.91
2018-07-21T12:24:36.044Z,21.91
2018-07-21T12:25:35.281Z,21.74
2018-07-21T12:26:35.773Z,21.7
2018-07-21T12:27:35.808Z,21.72
2018-07-21T12:28:35.270Z,21.63
2018-07-21T12:29:35.285Z,21.73
2018-07-21T12:30:35.240Z,21.8
2018-07-21T12:31:35.298Z,21.82
2018-07-21T12:32:35.280Z,21.88
2018-07-21T12:33:35.695Z,21.87
2018-07-21T12:34:35.276Z,21.94
2018-07-21T12:35:35.292Z,21.98
2018-07-21T12:36:35.290Z,22
2018-07-21T12:37:35.269Z,22.02
2018-07-21T12:38:35.286Z,22.06
2018-07-21T12:39:35.246Z,22.08
2018-07-21T12:40:35.248Z,22.09
2018-07-21T12:41:35.269Z,22.14
2018-07-21T12:42:35.735Z,22.17
2018-07-21T12:43:35.310Z,22.15
2018-07-21T12:44:35.266Z,22.15
2018-07-21T12:45:35.415Z,22.17
2018-07-21T12:46:35.658Z,22.2
2018-07-21T12:47:35.456Z,22.17
2018-07-21T12:48:35.346Z,22.07
2018-07-21T12:49:35.369Z,22.09
2018-07-21T12:50:35.244Z,22.14
2018-07-21T12:51:35.252Z,22.19
2018-07-21T12:52:35.590Z,22.19
2018-07-21T12:53:35.358Z,22.24
2018-07-21T12:54:35.227Z,22.27
2018-07-21T12:55:35.504Z,22.28
2018-07-21T12:56:35.518Z,22.31